createdAt,value
2022-11-30T00:00:30.938Z,5.60
2022-11-30T00:01:10.671Z,5.60
2022-11-30T00:01:42.464Z,5.70
2022-11-30T00:02:14.388Z,5.70
2022-11-30T00:02:47.403Z,5.70
2022-11-30T00:03:19.468Z,5.70
2022-11-30T00:03:53.840Z,5.70
2022-11-30T00:04:26.574Z,5.80
2022-11-30T00:04:58.344Z,5.80
2022-11-30T00:05:30.474Z,5.80
2022-11-30T00:06:05.779Z,5.80
2022-11-30T00:06:41.327Z,5.80
2022-11-30T00:07:13.138Z,5.80
2022-11-30T00:07:45.951Z,5.80
2022-11-30T00:08:17.998Z,5.80
2022-11-30T00:08:50.156Z,5.80
2022-11-30T00:09:22.927Z,5.80
2022-11-30T00:09:54.811Z,5.80
2022-11-30T00:10:26.607Z,5.80
2022-11-30T00:10:59.375Z,5.80
2022-11-30T00:11:31.223Z,5.80
2022-11-30T00:12:03.046Z,5.80
2022-11-30T00:12:35.819Z,5.80
2022-11-30T00:13:08.203Z,5.80
2022-11-30T00:13:40.547Z,5.80
2022-11-30T00:14:13.379Z,5.80
2022-11-30T00:14:45.457Z,5.70
2022-11-30T00:15:17.623Z,5.70
2022-11-30T00:15:51.752Z,5.60
2022-11-30T00:16:23.957Z,5.70
2022-11-30T00:16:55.890Z,5.70
2022-11-30T00:17:27.717Z,5.70
2022-11-30T00:18:00.929Z,5.70
2022-11-30T00:18:33.203Z,5.70
2022-11-30T00:19:04.994Z,5.70
2022-11-30T00:19:37.762Z,5.70
2022-11-30T00:20:11.048Z,5.70
2022-11-30T00:20:43.079Z,5.70
2022-11-30T00:21:16.463Z,5.70
2022-11-30T00:21:49.032Z,5.80
2022-11-30T00:22:20.885Z,5.80
2022-11-30T00:22:55.577Z,5.80
2022-11-30T00:23:27.508Z,5.80
2022-11-30T00:23:59.339Z,5.80
2022-11-30T00:24:32.090Z,5.80
2022-11-30T00:25:04.673Z,5.80
2022-11-30T00:25:37.308Z,5.80
2022-11-30T00:26:12.549Z,5.80
2022-11-30T00:26:44.341Z,5.80
2022-11-30T00:27:16.128Z,5.80
2022-11-30T00:27:48.954Z,5.80
2022-11-30T00:28:20.849Z,5.80
2022-11-30T00:28:52.875Z,5.70
2022-11-30T00:29:25.621Z,5.70
2022-11-30T00:29:57.802Z,5.70
2022-11-30T00:30:30.575Z,5.70
2022-11-30T00:31:06.479Z,5.60
2022-11-30T00:31:38.324Z,5.60
2022-11-30T00:32:10.112Z,5.50
2022-11-30T00:32:42.948Z,5.50
2022-11-30T00:33:14.722Z,5.50
2022-11-30T00:33:46.887Z,5.50
2022-11-30T00:34:19.653Z,5.40
2022-11-30T00:34:51.440Z,5.40
2022-11-30T00:35:23.419Z,5.40
2022-11-30T00:35:59.928Z,5.40
2022-11-30T00:36:31.722Z,5.40
2022-11-30T00:37:03.487Z,5.40
2022-11-30T00:37:36.615Z,5.40
2022-11-30T00:38:08.406Z,5.40
2022-11-30T00:38:40.247Z,5.40
2022-11-30T00:39:13.090Z,5.30
2022-11-30T00:39:44.888Z,5.20
2022-11-30T00:40:16.734Z,5.20
2022-11-30T00:40:49.471Z,5.20
2022-11-30T00:41:21.335Z,5.10
2022-11-30T00:41:54.164Z,5.10
2022-11-30T00:42:25.974Z,5.10
2022-11-30T00:42:57.760Z,5.10
2022-11-30T00:43:31.045Z,5.10
2022-11-30T00:44:02.843Z,5.10
2022-11-30T00:44:34.671Z,5.10
2022-11-30T00:45:08.262Z,5.20
2022-11-30T00:45:41.694Z,5.20
2022-11-30T00:46:15.969Z,5.30
2022-11-30T00:46:47.810Z,5.30
2022-11-30T00:47:19.741Z,5.30
2022-11-30T00:47:52.483Z,5.20
2022-11-30T00:48:24.664Z,5.20
2022-11-30T00:48:56.527Z,5.20
2022-11-30T00:49:29.679Z,5.20
2022-11-30T00:50:01.569Z,5.20
2022-11-30T00:50:33.640Z,5.30
2022-11-30T00:51:07.355Z,5.20
2022-11-30T00:51:39.223Z,5.20
2022-11-30T00:52:11.000Z,5.20
2022-11-30T00:52:43.760Z,5.30
2022-11-30T00:53:15.742Z,5.30
2022-11-30T00:53:49.259Z,5.30
2022-11-30T00:54:22.055Z,5.30
2022-11-30T00:54:53.835Z,5.40
2022-11-30T00:55:25.975Z,5.40
2022-11-30T00:55:57.831Z,5.40
2022-11-30T00:56:30.613Z,5.40
2022-11-30T00:57:02.389Z,5.50
2022-11-30T00:57:34.170Z,5.50
2022-11-30T00:58:07.344Z,5.50
2022-11-30T00:58:40.317Z,5.50
2022-11-30T00:59:12.113Z,5.50
2022-11-30T00:59:43.947Z,5.40
2022-11-30T01:00:16.314Z,5.40
2022-11-30T01:00:49.300Z,5.40
2022-11-30T01:01:22.455Z,5.30
2022-11-30T01:01:54.633Z,5.30
2022-11-30T01:02:27.401Z,5.40
2022-11-30T01:02:59.313Z,5.40
2022-11-30T01:03:31.119Z,5.40
2022-11-30T01:04:04.260Z,5.50
2022-11-30T01:04:36.039Z,5.50
2022-11-30T01:05:08.392Z,5.50
2022-11-30T01:05:40.722Z,5.60
2022-11-30T01:06:13.489Z,5.60
2022-11-30T01:06:45.264Z,5.60
2022-11-30T01:07:17.142Z,5.60
2022-11-30T01:07:49.000Z,5.60
2022-11-30T01:08:21.813Z,5.60
2022-11-30T01:08:53.643Z,5.60
2022-11-30T01:09:25.493Z,5.60
2022-11-30T01:09:58.303Z,5.60
2022-11-30T01:10:30.307Z,5.60
2022-11-30T01:11:06.503Z,5.70
2022-11-30T01:11:39.588Z,5.70
2022-11-30T01:12:11.336Z,5.70
2022-11-30T01:12:43.252Z,5.70
2022-11-30T01:13:16.083Z,5.70
2022-11-30T01:13:47.858Z,5.80
2022-11-30T01:14:19.648Z,5.80
2022-11-30T01:14:52.420Z,5.80
2022-11-30T01:15:24.257Z,5.80
2022-11-30T01:15:56.174Z,5.80
2022-11-30T01:16:32.440Z,5.80
2022-11-30T01:17:04.322Z,5.80
2022-11-30T01:17:36.178Z,5.80
2022-11-30T01:18:09.128Z,5.80
2022-11-30T01:18:41.098Z,5.90
2022-11-30T01:19:12.914Z,5.90
2022-11-30T01:19:45.777Z,5.90
2022-11-30T01:20:18.011Z,5.90
2022-11-30T01:20:49.880Z,5.90
2022-11-30T01:21:25.440Z,5.90
2022-11-30T01:21:57.243Z,5.90
2022-11-30T01:22:29.330Z,5.90
2022-11-30T01:23:02.138Z,5.90
2022-11-30T01:23:33.949Z,5.90
2022-11-30T01:24:06.770Z,5.90
2022-11-30T01:24:39.596Z,5.80
2022-11-30T01:25:11.474Z,5.80
2022-11-30T01:25:43.348Z,5.80
2022-11-30T01:26:16.640Z,5.80
2022-11-30T01:26:48.453Z,5.80
2022-11-30T01:27:20.248Z,5.80
2022-11-30T01:27:53.127Z,5.80
2022-11-30T01:28:24.935Z,5.80
2022-11-30T01:28:56.760Z,5.80
2022-11-30T01:29:29.602Z,5.80
2022-11-30T01:30:01.541Z,5.90
2022-11-30T01:30:33.384Z,5.90
2022-11-30T01:31:06.968Z,5.90
2022-11-30T01:31:41.091Z,5.90
2022-11-30T01:32:12.937Z,5.90
2022-11-30T01:32:44.886Z,5.90
2022-11-30T01:33:17.686Z,5.90
2022-11-30T01:33:50.516Z,5.90
2022-11-30T01:34:23.319Z,5.90
2022-11-30T01:34:55.143Z,5.90
2022-11-30T01:35:26.912Z,5.90
2022-11-30T01:36:00.720Z,5.90
2022-11-30T01:36:33.571Z,5.90
2022-11-30T01:37:05.372Z,5.90
2022-11-30T01:37:37.162Z,5.90
2022-11-30T01:38:09.912Z,5.90
2022-11-30T01:38:44.066Z,5.80
2022-11-30T01:39:15.842Z,5.80
2022-11-30T01:39:48.594Z,5.70
2022-11-30T01:40:20.370Z,5.70
2022-11-30T01:40:52.306Z,5.70
2022-11-30T01:41:25.971Z,5.60
2022-11-30T01:41:58.715Z,5.60
2022-11-30T01:42:30.567Z,5.60
2022-11-30T01:43:02.390Z,5.60
2022-11-30T01:43:40.112Z,5.60
2022-11-30T01:44:48.679Z,5.70
2022-11-30T01:45:20.684Z,5.70
2022-11-30T01:45:52.521Z,5.60
2022-11-30T01:46:29.702Z,5.60
2022-11-30T01:47:06.297Z,5.60
2022-11-30T01:47:42.248Z,5.50
2022-11-30T01:48:15.114Z,5.50
2022-11-30T01:48:59.395Z,5.50
2022-11-30T01:49:33.888Z,5.40
2022-11-30T01:50:11.110Z,5.40
2022-11-30T01:50:44.780Z,5.30
2022-11-30T01:51:16.585Z,5.30
2022-11-30T01:51:52.515Z,5.40
2022-11-30T01:52:28.956Z,5.20
2022-11-30T01:53:05.267Z,5.30
2022-11-30T01:53:37.126Z,5.30
2022-11-30T01:54:11.365Z,5.30
2022-11-30T01:54:48.410Z,5.30
2022-11-30T01:55:22.729Z,5.40
2022-11-30T01:55:54.545Z,5.40
2022-11-30T01:56:27.568Z,5.50
2022-11-30T01:57:03.164Z,5.50
2022-11-30T01:57:38.955Z,5.50
2022-11-30T01:58:13.682Z,5.60
2022-11-30T01:58:45.552Z,5.60
2022-11-30T01:59:20.260Z,5.60
2022-11-30T01:59:54.913Z,5.60
2022-11-30T02:00:27.231Z,5.60
2022-11-30T02:01:01.059Z,5.70
2022-11-30T02:01:33.304Z,5.70
2022-11-30T02:02:06.835Z,5.70
2022-11-30T02:02:46.872Z,5.70
2022-11-30T02:03:26.383Z,5.60
2022-11-30T02:04:04.642Z,5.70
2022-11-30T02:04:39.527Z,5.70
2022-11-30T02:05:12.645Z,5.70
2022-11-30T02:05:44.590Z,5.70
2022-11-30T02:06:17.504Z,5.70
2022-11-30T02:06:49.684Z,5.70
2022-11-30T02:07:21.999Z,5.70
2022-11-30T02:07:55.794Z,5.80
2022-11-30T02:08:28.364Z,5.80
2022-11-30T02:09:01.038Z,5.80
2022-11-30T02:09:38.899Z,5.80
2022-11-30T02:10:15.859Z,5.70
2022-11-30T02:10:52.146Z,5.70
2022-11-30T02:11:27.971Z,5.80
2022-11-30T02:12:00.784Z,5.80
2022-11-30T02:12:40.024Z,5.80
2022-11-30T02:13:33.348Z,5.80
2022-11-30T02:14:17.501Z,5.80
2022-11-30T02:14:54.804Z,5.80
2022-11-30T02:15:31.303Z,5.80
2022-11-30T02:16:10.131Z,5.80
2022-11-30T02:16:54.936Z,5.80
2022-11-30T02:17:36.769Z,5.70
2022-11-30T02:18:12.665Z,5.70
2022-11-30T02:18:53.149Z,5.70
2022-11-30T02:20:11.057Z,5.70
2022-11-30T02:21:03.559Z,5.60
2022-11-30T02:21:43.622Z,5.50
2022-11-30T02:22:32.120Z,5.50
2022-11-30T02:23:35.392Z,5.50
2022-11-30T02:24:40.140Z,5.40
2022-11-30T02:25:22.892Z,5.40
2022-11-30T02:25:59.438Z,5.40
2022-11-30T02:27:05.560Z,5.50
2022-11-30T02:28:05.145Z,5.50
2022-11-30T02:28:59.110Z,5.50
2022-11-30T02:29:38.013Z,5.30
2022-11-30T02:30:14.605Z,5.20
2022-11-30T02:30:50.387Z,5.20
2022-11-30T02:31:27.332Z,5.10
2022-11-30T02:32:06.763Z,5.10
2022-11-30T02:32:45.345Z,5.20
2022-11-30T02:33:20.363Z,5.20
2022-11-30T02:33:54.749Z,5.20
2022-11-30T02:34:29.897Z,5.20
2022-11-30T02:35:05.651Z,5.20
2022-11-30T02:35:42.460Z,5.30
2022-11-30T02:36:14.503Z,5.30
2022-11-30T02:36:49.008Z,5.30
2022-11-30T02:37:22.556Z,5.30
2022-11-30T02:37:56.623Z,5.40
2022-11-30T02:38:30.259Z,5.40
2022-11-30T02:39:02.277Z,5.40
2022-11-30T02:39:34.269Z,5.40
2022-11-30T02:40:10.212Z,5.50
2022-11-30T02:40:42.126Z,5.50
2022-11-30T02:41:13.899Z,5.60
2022-11-30T02:41:46.636Z,5.60
2022-11-30T02:42:18.459Z,5.60
2022-11-30T02:42:52.171Z,5.60
2022-11-30T02:43:27.734Z,5.60
2022-11-30T02:44:01.098Z,5.60
2022-11-30T02:44:33.098Z,5.60
2022-11-30T02:45:07.860Z,5.60
2022-11-30T02:45:58.610Z,5.60
2022-11-30T02:46:39.749Z,5.60
2022-11-30T02:47:19.564Z,5.50
2022-11-30T02:47:59.055Z,5.50
2022-11-30T02:48:42.491Z,5.40
2022-11-30T02:49:23.219Z,5.50
2022-11-30T02:50:00.231Z,5.50
2022-11-30T02:50:39.259Z,5.40
2022-11-30T02:51:14.575Z,5.40
2022-11-30T02:51:47.147Z,5.40
2022-11-30T02:52:23.289Z,5.40
2022-11-30T02:52:55.708Z,5.40
2022-11-30T02:53:27.536Z,5.40
2022-11-30T02:53:59.687Z,5.40
2022-11-30T02:54:33.213Z,5.40
2022-11-30T02:55:07.801Z,5.40
2022-11-30T02:55:39.937Z,5.40
2022-11-30T02:56:12.825Z,5.40
2022-11-30T02:56:44.652Z,5.40
2022-11-30T02:57:16.464Z,5.40
2022-11-30T02:57:49.242Z,5.40
2022-11-30T02:58:22.015Z,5.30
2022-11-30T02:58:53.823Z,5.30
2022-11-30T02:59:28.446Z,5.20
2022-11-30T03:00:03.849Z,5.30
2022-11-30T03:00:36.644Z,5.20
2022-11-30T03:01:08.840Z,5.30
2022-11-30T03:01:40.805Z,5.30
2022-11-30T03:02:13.954Z,5.20
2022-11-30T03:02:46.112Z,5.20
2022-11-30T03:03:17.918Z,5.20
2022-11-30T03:03:50.850Z,5.20
2022-11-30T03:04:22.884Z,5.20
2022-11-30T03:04:54.686Z,5.30
2022-11-30T03:05:27.508Z,5.30
2022-11-30T03:05:59.343Z,5.30
2022-11-30T03:06:31.208Z,5.30
2022-11-30T03:07:03.998Z,5.40
2022-11-30T03:07:36.206Z,5.40
2022-11-30T03:08:08.094Z,5.40
2022-11-30T03:08:40.879Z,5.40
2022-11-30T03:09:14.090Z,5.40
2022-11-30T03:09:45.872Z,5.30
2022-11-30T03:10:18.858Z,5.20
2022-11-30T03:10:50.644Z,5.20
2022-11-30T03:11:22.455Z,5.20
2022-11-30T03:11:55.234Z,5.20
2022-11-30T03:12:27.375Z,5.20
2022-11-30T03:12:59.723Z,5.10
2022-11-30T03:13:32.775Z,5.10
2022-11-30T03:14:04.552Z,5.10
2022-11-30T03:14:37.712Z,5.00
2022-11-30T03:15:11.247Z,5.00
2022-11-30T03:15:43.170Z,5.00
2022-11-30T03:16:15.026Z,5.00
2022-11-30T03:16:46.848Z,5.10
2022-11-30T03:17:19.946Z,5.10
2022-11-30T03:17:51.752Z,5.10
2022-11-30T03:18:23.551Z,5.00
2022-11-30T03:18:57.880Z,4.90
2022-11-30T03:19:29.659Z,4.90
2022-11-30T03:20:01.466Z,4.90
2022-11-30T03:20:34.217Z,4.90
2022-11-30T03:21:06.828Z,4.90
2022-11-30T03:21:38.610Z,4.90
2022-11-30T03:22:11.467Z,4.80
2022-11-30T03:22:43.479Z,4.80
2022-11-30T03:23:15.259Z,4.80
2022-11-30T03:23:47.071Z,4.80
2022-11-30T03:24:19.816Z,4.80
2022-11-30T03:24:51.604Z,4.80
2022-11-30T03:25:23.421Z,4.80
2022-11-30T03:25:58.573Z,4.80
2022-11-30T03:26:30.588Z,4.80
2022-11-30T03:27:02.461Z,4.80
2022-11-30T03:27:35.222Z,4.80
2022-11-30T03:28:07.032Z,4.80
2022-11-30T03:28:38.842Z,4.80
2022-11-30T03:29:11.666Z,4.80
2022-11-30T03:29:44.784Z,4.90
2022-11-30T03:30:17.160Z,4.90
2022-11-30T03:30:50.375Z,4.90
2022-11-30T03:31:22.291Z,4.90
2022-11-30T03:31:54.117Z,4.90
2022-11-30T03:32:26.888Z,4.90
2022-11-30T03:32:58.693Z,4.90
2022-11-30T03:33:30.549Z,4.90
2022-11-30T03:34:03.459Z,5.00
2022-11-30T03:34:35.265Z,5.00
2022-11-30T03:35:07.787Z,5.00
2022-11-30T03:35:39.580Z,5.00
2022-11-30T03:36:13.164Z,5.00
2022-11-30T03:36:44.967Z,5.00
2022-11-30T03:37:16.904Z,5.00
2022-11-30T03:37:49.719Z,5.00
2022-11-30T03:38:21.470Z,5.00
2022-11-30T03:38:53.268Z,5.00
2022-11-30T03:39:26.055Z,5.00
2022-11-30T03:39:58.644Z,5.00
2022-11-30T03:40:30.478Z,5.00
2022-11-30T03:41:04.232Z,5.10
2022-11-30T03:41:36.351Z,5.10
2022-11-30T03:42:08.177Z,5.10
2022-11-30T03:42:41.038Z,5.10
2022-11-30T03:43:12.824Z,5.10
2022-11-30T03:43:45.102Z,5.10
2022-11-30T03:44:18.283Z,5.20
2022-11-30T03:44:51.385Z,5.20
2022-11-30T03:45:23.407Z,5.20
2022-11-30T03:45:56.292Z,5.20
2022-11-30T03:46:28.116Z,5.20
2022-11-30T03:46:59.899Z,5.20
2022-11-30T03:47:32.647Z,5.20
2022-11-30T03:48:04.564Z,5.20
2022-11-30T03:48:36.475Z,5.30
2022-11-30T03:49:09.210Z,5.30
2022-11-30T03:49:41.004Z,5.30
2022-11-30T03:50:12.794Z,5.30
2022-11-30T03:50:49.540Z,5.30
2022-11-30T03:51:21.357Z,5.30
2022-11-30T03:51:54.099Z,5.30
2022-11-30T03:52:25.895Z,5.30
2022-11-30T03:52:58.936Z,5.30
2022-11-30T03:53:32.502Z,5.30
2022-11-30T03:54:04.354Z,5.30
2022-11-30T03:54:36.134Z,5.40
2022-11-30T03:55:09.803Z,5.40
2022-11-30T03:55:41.629Z,5.40
2022-11-30T03:56:14.198Z,5.40
2022-11-30T03:56:46.959Z,5.40
2022-11-30T03:57:18.749Z,5.40
2022-11-30T03:57:50.565Z,5.40
2022-11-30T03:58:24.599Z,5.40
2022-11-30T03:58:56.439Z,5.40
2022-11-30T03:59:28.215Z,5.30
2022-11-30T04:00:02.291Z,5.30
2022-11-30T04:00:34.043Z,5.30
2022-11-30T04:01:08.399Z,5.30
2022-11-30T04:01:41.870Z,5.30
2022-11-30T04:02:13.790Z,5.30
2022-11-30T04:02:45.675Z,5.30
2022-11-30T04:03:18.548Z,5.30
2022-11-30T04:03:52.086Z,5.30
2022-11-30T04:04:23.934Z,5.30
2022-11-30T04:04:56.713Z,5.30
2022-11-30T04:05:29.026Z,5.30
2022-11-30T04:06:01.411Z,5.30
2022-11-30T04:06:34.267Z,5.30
2022-11-30T04:07:06.043Z,5.30
2022-11-30T04:07:37.893Z,5.30
2022-11-30T04:08:10.713Z,5.30
2022-11-30T04:08:42.768Z,5.30
2022-11-30T04:09:14.616Z,5.30
2022-11-30T04:09:47.370Z,5.30
2022-11-30T04:10:19.249Z,5.30
2022-11-30T04:10:51.934Z,5.30
2022-11-30T04:11:24.679Z,5.30
2022-11-30T04:11:56.476Z,5.30
2022-11-30T04:12:28.273Z,5.30
2022-11-30T04:13:01.036Z,5.30
2022-11-30T04:13:34.362Z,5.30
2022-11-30T04:14:06.320Z,5.30
2022-11-30T04:14:39.101Z,5.30
2022-11-30T04:15:12.731Z,5.40
2022-11-30T04:15:46.404Z,5.40
2022-11-30T04:16:19.212Z,5.40
2022-11-30T04:16:51.100Z,5.40
2022-11-30T04:17:22.867Z,5.40
2022-11-30T04:17:54.656Z,5.40
2022-11-30T04:18:28.821Z,5.40
2022-11-30T04:19:00.814Z,5.40
2022-11-30T04:19:32.643Z,5.30
2022-11-30T04:20:06.672Z,5.30
2022-11-30T04:20:40.543Z,5.30
2022-11-30T04:21:12.665Z,5.30
2022-11-30T04:21:44.520Z,5.20
2022-11-30T04:22:17.270Z,5.20
2022-11-30T04:22:49.079Z,5.20
2022-11-30T04:23:22.102Z,5.20
2022-11-30T04:23:54.896Z,5.20
2022-11-30T04:24:26.742Z,5.30
2022-11-30T04:24:58.544Z,5.30
2022-11-30T04:25:31.304Z,5.20
2022-11-30T04:26:03.324Z,5.20
2022-11-30T04:26:35.150Z,5.30
2022-11-30T04:27:07.961Z,5.40
2022-11-30T04:27:39.767Z,5.30
2022-11-30T04:28:11.804Z,5.30
2022-11-30T04:28:44.763Z,5.40
2022-11-30T04:29:16.569Z,5.30
2022-11-30T04:29:48.377Z,5.40
2022-11-30T04:30:22.543Z,5.40
2022-11-30T04:30:54.968Z,5.40
2022-11-30T04:31:26.957Z,5.40
2022-11-30T04:31:59.858Z,5.40
2022-11-30T04:32:31.765Z,5.40
2022-11-30T04:33:04.547Z,5.40
2022-11-30T04:33:37.417Z,5.40
2022-11-30T04:34:09.779Z,5.40
2022-11-30T04:34:41.590Z,5.30
2022-11-30T04:35:14.596Z,5.30
2022-11-30T04:35:50.920Z,5.30
2022-11-30T04:36:22.864Z,5.30
2022-11-30T04:37:00.068Z,5.40
2022-11-30T04:37:32.364Z,5.40
2022-11-30T04:38:04.188Z,5.40
2022-11-30T04:38:38.022Z,5.40
2022-11-30T04:39:10.459Z,5.40
2022-11-30T04:39:42.218Z,5.40
2022-11-30T04:40:15.270Z,5.40
2022-11-30T04:40:47.200Z,5.40
2022-11-30T04:41:19.975Z,5.40
2022-11-30T04:41:51.824Z,5.40
2022-11-30T04:42:23.593Z,5.40
2022-11-30T04:42:55.374Z,5.40
2022-11-30T04:43:28.437Z,5.40
2022-11-30T04:44:00.255Z,5.30
2022-11-30T04:44:32.031Z,5.30
2022-11-30T04:45:05.294Z,5.30
2022-11-30T04:45:38.951Z,5.30
2022-11-30T04:46:10.923Z,5.30
2022-11-30T04:46:43.818Z,5.30
2022-11-30T04:47:15.791Z,5.30
2022-11-30T04:47:47.582Z,5.20
2022-11-30T04:48:20.863Z,5.10
2022-11-30T04:48:52.649Z,5.30
2022-11-30T04:49:24.440Z,5.30
2022-11-30T04:49:57.268Z,5.30
2022-11-30T04:50:29.096Z,5.40
2022-11-30T04:51:01.765Z,5.40
2022-11-30T04:51:34.596Z,5.40
2022-11-30T04:52:06.409Z,5.40
2022-11-30T04:52:38.200Z,5.40
2022-11-30T04:53:11.284Z,5.40
2022-11-30T04:53:43.060Z,5.40
2022-11-30T04:54:14.903Z,5.50
2022-11-30T04:54:47.855Z,5.50
2022-11-30T04:55:19.778Z,5.50
2022-11-30T04:55:51.558Z,5.60
2022-11-30T04:56:24.315Z,5.60
2022-11-30T04:56:56.255Z,5.60
2022-11-30T04:57:28.109Z,5.60
2022-11-30T04:58:00.927Z,5.60
2022-11-30T04:58:32.703Z,5.60
2022-11-30T04:59:04.622Z,5.50
2022-11-30T04:59:37.450Z,5.50
2022-11-30T05:00:11.291Z,5.50
2022-11-30T05:00:44.476Z,5.50
2022-11-30T05:01:17.301Z,5.50
2022-11-30T05:01:49.133Z,5.50
2022-11-30T05:02:20.951Z,5.50
2022-11-30T05:02:53.704Z,5.60
2022-11-30T05:03:25.507Z,5.50
2022-11-30T05:03:59.942Z,5.60
2022-11-30T05:04:32.778Z,5.60
2022-11-30T05:05:05.565Z,5.60
2022-11-30T05:05:37.355Z,5.60
2022-11-30T05:06:10.118Z,5.60
2022-11-30T05:06:41.948Z,5.60
2022-11-30T05:07:13.754Z,5.60
2022-11-30T05:07:49.743Z,5.60
2022-11-30T05:08:22.509Z,5.60
2022-11-30T05:08:54.278Z,5.50
2022-11-30T05:09:26.103Z,5.50
2022-11-30T05:09:58.943Z,5.50
2022-11-30T05:10:33.604Z,5.60
2022-11-30T05:11:05.643Z,5.60
2022-11-30T05:11:38.388Z,5.60
2022-11-30T05:12:10.161Z,5.60
2022-11-30T05:12:42.192Z,5.60
2022-11-30T05:13:14.926Z,5.60
2022-11-30T05:13:46.743Z,5.70
2022-11-30T05:14:18.570Z,5.70
2022-11-30T05:14:51.433Z,5.70
2022-11-30T05:15:23.270Z,5.70
2022-11-30T05:15:56.518Z,5.70
2022-11-30T05:16:29.441Z,5.80
2022-11-30T05:17:01.319Z,5.70
2022-11-30T05:17:33.156Z,5.80
2022-11-30T05:18:06.006Z,5.80
2022-11-30T05:18:37.783Z,5.80
2022-11-30T05:19:09.876Z,5.80
2022-11-30T05:19:42.785Z,5.80
2022-11-30T05:20:14.799Z,5.80
2022-11-30T05:20:50.314Z,5.80
2022-11-30T05:21:23.090Z,5.80
2022-11-30T05:21:54.876Z,5.80
2022-11-30T05:22:26.675Z,5.70
2022-11-30T05:22:59.436Z,5.70
2022-11-30T05:23:31.208Z,5.80
2022-11-30T05:24:03.103Z,5.70
2022-11-30T05:24:35.869Z,5.70
2022-11-30T05:25:08.266Z,5.70
2022-11-30T05:25:40.115Z,5.70
2022-11-30T05:26:13.054Z,5.70
2022-11-30T05:26:44.824Z,5.70
2022-11-30T05:27:22.227Z,5.70
2022-11-30T05:27:55.376Z,5.70
2022-11-30T05:28:27.182Z,5.70
2022-11-30T05:28:59.072Z,5.70
2022-11-30T05:29:31.845Z,5.70
2022-11-30T05:30:05.022Z,5.60
2022-11-30T05:30:38.276Z,5.60
2022-11-30T05:31:12.408Z,5.60
2022-11-30T05:31:44.258Z,5.60
2022-11-30T05:32:16.110Z,5.50
2022-11-30T05:32:48.990Z,5.50
2022-11-30T05:33:20.764Z,5.50
2022-11-30T05:33:53.446Z,5.50
2022-11-30T05:34:26.721Z,5.50
2022-11-30T05:34:58.853Z,5.50
2022-11-30T05:35:30.814Z,5.60
2022-11-30T05:36:10.122Z,5.50
2022-11-30T05:36:42.572Z,5.60
2022-11-30T05:37:14.365Z,5.60
2022-11-30T05:37:47.115Z,5.60
2022-11-30T05:38:18.946Z,5.60
2022-11-30T05:38:50.812Z,5.60
2022-11-30T05:39:23.584Z,5.50
2022-11-30T05:39:55.391Z,5.50
2022-11-30T05:40:28.656Z,5.50
2022-11-30T05:41:02.265Z,5.50
2022-11-30T05:41:34.102Z,5.50
2022-11-30T05:42:05.915Z,5.50
2022-11-30T05:42:37.770Z,5.50
2022-11-30T05:43:11.332Z,5.50
2022-11-30T05:43:44.713Z,5.50
2022-11-30T05:44:16.576Z,5.50
2022-11-30T05:44:48.701Z,5.60
2022-11-30T05:45:21.711Z,5.60
2022-11-30T05:45:58.764Z,5.60
2022-11-30T05:46:34.289Z,5.60
2022-11-30T05:47:10.141Z,5.60
2022-11-30T05:47:41.955Z,5.60
2022-11-30T05:48:14.780Z,5.60
2022-11-30T05:48:46.556Z,5.60
2022-11-30T05:49:18.328Z,5.60
2022-11-30T05:49:51.073Z,5.60
2022-11-30T05:50:22.918Z,5.60
2022-11-30T05:50:54.835Z,5.60
2022-11-30T05:51:27.736Z,5.50
2022-11-30T05:51:59.561Z,5.50
2022-11-30T05:52:31.387Z,5.50
2022-11-30T05:53:04.164Z,5.60
2022-11-30T05:53:36.510Z,5.60
2022-11-30T05:54:08.411Z,5.60
2022-11-30T05:54:41.251Z,5.60
2022-11-30T05:55:13.071Z,5.60
2022-11-30T05:55:45.284Z,5.60
2022-11-30T05:56:19.909Z,5.60
2022-11-30T05:56:55.000Z,5.60
2022-11-30T05:57:28.270Z,5.70
2022-11-30T05:58:00.776Z,5.70
2022-11-30T05:58:32.949Z,5.70
2022-11-30T05:59:06.104Z,5.70
2022-11-30T05:59:37.925Z,5.70
2022-11-30T06:00:10.705Z,5.70
2022-11-30T06:00:43.475Z,5.70
2022-11-30T06:01:19.908Z,5.80
2022-11-30T06:01:53.505Z,5.80
2022-11-30T06:02:28.334Z,5.80
2022-11-30T06:03:00.642Z,5.80
2022-11-30T06:03:34.136Z,5.80
2022-11-30T06:04:08.815Z,5.80
2022-11-30T06:04:40.912Z,5.80
2022-11-30T06:05:13.538Z,5.80
2022-11-30T06:05:46.333Z,5.80
2022-11-30T06:06:18.656Z,5.80
2022-11-30T06:06:52.120Z,5.80
2022-11-30T06:07:24.917Z,5.80
2022-11-30T06:07:59.594Z,5.80
2022-11-30T06:08:31.580Z,5.80
2022-11-30T06:09:04.768Z,5.80
2022-11-30T06:09:36.556Z,5.80
2022-11-30T06:10:09.342Z,5.90
2022-11-30T06:10:41.117Z,5.90
2022-11-30T06:11:14.328Z,5.90
2022-11-30T06:11:46.108Z,5.90
2022-11-30T06:12:18.312Z,5.90
2022-11-30T06:12:51.697Z,5.90
2022-11-30T06:13:28.582Z,5.90
2022-11-30T06:14:00.808Z,5.90
2022-11-30T06:14:33.603Z,5.90
2022-11-30T06:15:06.054Z,5.90
2022-11-30T06:15:37.918Z,5.90
2022-11-30T06:16:11.038Z,5.90
2022-11-30T06:16:43.006Z,5.90
2022-11-30T06:17:16.235Z,5.90
2022-11-30T06:17:49.037Z,6.00
2022-11-30T06:18:20.816Z,5.90
2022-11-30T06:18:53.375Z,6.00
2022-11-30T06:19:26.124Z,6.00
2022-11-30T06:19:57.884Z,6.00
2022-11-30T06:20:29.822Z,6.00
2022-11-30T06:21:03.269Z,6.00
2022-11-30T06:21:35.101Z,6.00
2022-11-30T06:22:07.898Z,6.00
2022-11-30T06:22:39.749Z,5.90
2022-11-30T06:23:11.573Z,5.90
2022-11-30T06:23:44.425Z,5.90
2022-11-30T06:24:16.206Z,5.90
2022-11-30T06:24:49.326Z,6.00
2022-11-30T06:25:21.516Z,6.00
2022-11-30T06:25:53.286Z,6.00
2022-11-30T06:26:26.124Z,6.00
2022-11-30T06:26:57.932Z,6.00
2022-11-30T06:27:31.064Z,6.00
2022-11-30T06:28:03.903Z,6.00
2022-11-30T06:28:36.197Z,6.00
2022-11-30T06:29:09.374Z,6.00
2022-11-30T06:29:42.126Z,6.00
2022-11-30T06:30:14.994Z,6.00
2022-11-30T06:30:46.818Z,6.00
2022-11-30T06:31:19.679Z,6.00
2022-11-30T06:31:51.595Z,6.00
2022-11-30T06:32:24.907Z,6.10
2022-11-30T06:32:57.682Z,6.10
2022-11-30T06:33:29.497Z,6.10
2022-11-30T06:34:01.338Z,6.10
2022-11-30T06:34:34.184Z,6.10
2022-11-30T06:35:06.740Z,6.10
2022-11-30T06:35:45.140Z,6.10
2022-11-30T06:36:22.696Z,6.10
2022-11-30T06:36:54.578Z,6.10
2022-11-30T06:37:27.398Z,6.10
2022-11-30T06:38:00.425Z,6.10
2022-11-30T06:38:33.274Z,6.10
2022-11-30T06:39:05.323Z,6.10
2022-11-30T06:40:04.667Z,6.10
2022-11-30T06:40:29.920Z,6.10
2022-11-30T06:41:05.747Z,6.00
2022-11-30T06:41:38.540Z,6.10
2022-11-30T06:42:10.393Z,6.00
2022-11-30T06:42:42.219Z,6.10
2022-11-30T06:43:15.420Z,6.10
2022-11-30T06:43:47.279Z,6.00
2022-11-30T06:44:19.202Z,6.10
2022-11-30T06:44:52.027Z,6.00
2022-11-30T06:45:23.791Z,6.10
2022-11-30T06:45:55.929Z,6.10
2022-11-30T06:46:28.771Z,6.10
2022-11-30T06:47:00.565Z,6.10
2022-11-30T06:47:33.761Z,6.00
2022-11-30T06:48:06.793Z,6.10
2022-11-30T06:48:38.789Z,6.00
2022-11-30T06:49:11.918Z,6.10
2022-11-30T06:49:43.763Z,6.10
2022-11-30T06:50:15.691Z,6.10
2022-11-30T06:50:50.221Z,6.10
2022-11-30T06:51:22.188Z,6.10
2022-11-30T06:51:54.037Z,6.10
2022-11-30T06:52:26.783Z,6.10
2022-11-30T06:52:58.975Z,6.10
2022-11-30T06:53:31.903Z,6.10
2022-11-30T06:54:04.038Z,6.00
2022-11-30T06:54:35.854Z,6.00
2022-11-30T06:55:09.298Z,5.90
2022-11-30T06:55:42.771Z,5.90
2022-11-30T06:56:15.575Z,5.90
2022-11-30T06:56:48.421Z,5.90
2022-11-30T06:57:20.189Z,5.90
2022-11-30T06:57:53.117Z,5.90
2022-11-30T06:58:24.932Z,5.90
2022-11-30T06:58:57.792Z,5.90
2022-11-30T06:59:29.669Z,6.00
2022-11-30T07:00:01.613Z,6.00
2022-11-30T07:00:35.011Z,6.00
2022-11-30T07:01:08.090Z,5.90
2022-11-30T07:01:41.172Z,5.90
2022-11-30T07:02:18.158Z,6.00
2022-11-30T07:02:52.823Z,5.90
2022-11-30T07:03:24.623Z,5.90
2022-11-30T07:03:57.520Z,5.90
2022-11-30T07:04:29.573Z,5.90
2022-11-30T07:05:01.514Z,5.90
2022-11-30T07:05:40.561Z,5.90
2022-11-30T07:06:14.573Z,5.90
2022-11-30T07:06:46.454Z,5.90
2022-11-30T07:07:19.305Z,5.90
2022-11-30T07:07:51.377Z,5.90
2022-11-30T07:08:23.427Z,5.90
2022-11-30T07:08:56.219Z,5.80
2022-11-30T07:09:28.211Z,5.80
2022-11-30T07:10:00.030Z,5.80
2022-11-30T07:10:32.839Z,5.70
2022-11-30T07:11:05.583Z,5.70
2022-11-30T07:11:38.453Z,5.70
2022-11-30T07:12:10.433Z,5.70
2022-11-30T07:12:45.146Z,5.70
2022-11-30T07:13:18.907Z,5.70
2022-11-30T07:13:52.078Z,5.60
2022-11-30T07:14:24.075Z,5.60
2022-11-30T07:14:55.949Z,5.60
2022-11-30T07:15:28.763Z,5.60
2022-11-30T07:16:04.238Z,5.60
2022-11-30T07:16:37.090Z,5.60
2022-11-30T07:17:08.988Z,5.60
2022-11-30T07:17:40.793Z,5.70
2022-11-30T07:18:15.003Z,5.70
2022-11-30T07:18:46.780Z,5.70
2022-11-30T07:19:18.728Z,5.70
2022-11-30T07:19:51.541Z,5.80
2022-11-30T07:20:23.374Z,5.80
2022-11-30T07:21:00.032Z,5.80
2022-11-30T07:21:31.913Z,5.80
2022-11-30T07:22:05.264Z,5.80
2022-11-30T07:22:37.046Z,5.80
2022-11-30T07:23:27.655Z,5.90
2022-11-30T07:24:18.238Z,5.90
2022-11-30T07:25:08.733Z,5.80
2022-11-30T07:25:59.302Z,5.80